world map with HYD marked

HYD - Airport

This information may not be accurate or current and is not valid for navigation or flight planning. No warranty of fitness for any purpose is made or implied.

flag of India

Donate via PayPal

Additional information is available on the NEW Great Circle Mapper

Location
City:  Hyderabad, Telangana, India
Near (Alt.):Shamshabad
Name:Rajiv Gandhi International Airport
ICAO / IATA:VOHS / HYD

Details
Type:Airport (Aerodrome, Airfield)
Latitude:17°15'N (17.254)
Longitude:78°26'E (78.431)
Runways:1
Longest:13976 ft (4260 m)

Time
Timezone:UTC+5:30 (DST+7:30)
Local Time:

Weather
METAR:VOHS  200530Z 13004KT 5000 HZ NSC 31/28 Q1016 BECMG 6000
TAF:VOHS  (expired)

Related Locations
Nearby:
Farthest:IPC: 11589 mi / 18651 km
Easter Island (Isla de Pascua, Rapa Nui) [Mataveri Intl], VS, CL

Find:

   beyond  
but within

Other Information
Maps:
Links:
Sources:

  


 


Great Circle Mapper   Great Circle Mapper
Great Circle Mapper FAQ   Great Circle Mapper FAQ
  Karl's Home Page
KLSē   KLSē Home
   GC on Facebook
Airlines of the World   Airlines of the World
Donate via PayPal


Copyright © 2004-2017, Karl L. Swartz. All rights reserved.
All trademarks mentioned herein belong to their respective owners.

Please see credits for attribution and copyright information.

Karl Swartz <karl@kls2.com>
  Powered by FreeBSD
Valid HTML 4.01!
Labeled with ICRA
hCard Microformat
Geo Microformat